Time;durP1;ratioP1;P1;durP2;ratioP2;P2;SDS_P1;SDS_P2;PMS_P1;PMS_P2;Temp;Humidity;BMP_temperature;BMP_pressure;BME280_temperature;BME280_humidity;BME280_pressure;Samples;Min_cycle;Max_cycle;Signal;HPM_P1;HPM_P2
2022/02/16 05:51:50;;;;;;;0.60;0.60;;;;;;;;;;6197206;22;20103;-96
2022/02/16 06:40:59;;;;;;;0.38;0.38;;;;;;;;;;6189167;22;20029;-95
2022/02/16 06:43:25;;;;;;;0.35;0.35;;;;;;;;;;6185669;23;20009;-96
2022/02/16 07:32:45;;;;;;;0.30;0.30;;;;;;;;;;6191752;22;20036;-95
2022/02/16 07:45:38;;;;;;;0.30;0.30;;;;;;;;;;6202209;22;20032;-95
2022/02/16 07:48:14;;;;;;;0.38;0.38;;;;;;;;;;6206681;23;20013;-96
2022/02/16 07:50:54;;;;;;;0.40;0.40;;;;;;;;;;6154667;23;20074;-95
2022/02/16 07:54:13;;;;;;;0.35;0.35;;;;;;;;;;6204565;23;20238;-95
2022/02/16 07:57:39;;;;;;;1.90;0.82;;;;;;;;;;6088717;23;20030;-94
2022/02/16 08:03:39;;;;;;;0.40;0.40;;;;;;;;;;6048321;23;20031;-96
2022/02/16 08:06:19;;;;;;;0.80;0.80;;;;;;;;;;6047655;23;20007;-94
2022/02/16 08:08:57;;;;;;;0.82;0.47;;;;;;;;;;6024561;23;20007;-96
2022/02/16 08:11:32;;;;;;;0.65;0.60;;;;;;;;;;6026205;23;20007;-96
2022/02/16 08:13:59;;;;;;;1.55;0.65;;;;;;;;;;6048019;23;20424;-94
2022/02/16 08:16:28;;;;;;;0.35;0.35;;;;;;;;;;6047879;23;20014;-95
2022/02/16 08:18:54;;;;;;;0.32;0.32;;;;;;;;;;6044004;23;20003;-95
2022/02/16 08:21:21;;;;;;;0.67;0.47;;;;;;;;;;6043556;23;20012;-95
2022/02/16 08:23:47;;;;;;;0.40;0.40;;;;;;;;;;6043445;23;20047;-95
2022/02/16 08:26:13;;;;;;;0.63;0.63;;;;;;;;;;6045151;23;20063;-95
2022/02/16 08:28:39;;;;;;;4.57;0.50;;;;;;;;;;6042740;23;20027;-95
2022/02/16 08:31:10;;;;;;;1.75;0.50;;;;;;;;;;6053453;23;20003;-95
2022/02/16 08:33:37;;;;;;;0.40;0.40;;;;;;;;;;6118453;23;20032;-95
2022/02/16 08:36:11;;;;;;;0.47;0.43;;;;;;;;;;6184266;23;20012;-95
2022/02/16 08:38:39;;;;;;;1.02;0.93;;;;;;;;;;6146782;23;20036;-95
2022/02/16 08:41:07;;;;;;;1.40;0.63;;;;;;;;;;6192134;23;20001;-95
2022/02/16 08:43:37;;;;;;;0.80;0.70;;;;;;;;;;6197424;23;20013;-96
2022/02/16 08:46:18;;;;;;;0.63;0.50;;;;;;;;;;6201255;23;20008;-96
2022/02/16 08:48:46;;;;;;;1.40;0.80;;;;;;;;;;6197885;23;20005;-95
2022/02/16 08:51:13;;;;;;;0.90;0.60;;;;;;;;;;6200091;23;20001;-95
2022/02/16 08:53:40;;;;;;;;;;;9.80;97.80;;;;;;6197759;23;20054;-96
2022/02/16 08:56:21;;;;;;;0.90;0.55;;;;;;;;;;6198332;23;19900;-96
2022/02/16 08:59:10;;;;;;;1.50;0.70;;;;;;;;;;6201823;23;20192;-96
2022/02/16 09:30:39;;;;;;;1.42;0.90;;;;;;;;;;6185300;23;20025;-93
2022/02/16 09:33:06;;;;;;;6.55;1.63;;;;;;;;;;6184896;23;20048;-94
2022/02/16 09:35:32;;;;;;;2.80;1.73;;;;;;;;;;6185852;23;20036;-94
2022/02/16 09:37:59;;;;;;;2.80;1.10;;;;;;;;;;6188264;23;20005;-95
2022/02/16 09:43:02;;;;;;;2.08;1.33;;;;;;;;;;6185972;23;20025;-94
2022/02/16 09:45:29;;;;;;;2.55;1.80;;;;;;;;;;6185163;23;20080;-93
2022/02/16 09:47:55;;;;;;;1.13;1.02;;;;;;;;;;6187537;23;20024;-94
2022/02/16 09:55:33;;;;;;;1.77;1.13;;;;;;;;;;6182826;23;20025;-94
2022/02/16 10:34:19;;;;;;;1.88;1.17;;;;;;;;;;6228795;23;20032;-96
2022/02/16 10:47:17;;;;;;;0.50;0.50;;;;;;;;;;6195203;23;20047;-96
2022/02/16 10:49:46;;;;;;;1.15;1.05;;;;;;;;;;6208825;23;19993;-96
2022/02/16 10:52:14;;;;;;;2.25;0.68;;;;;;;;;;6212434;23;20041;-96
2022/02/16 10:55:02;;;;;;;0.70;0.70;;;;;;;;;;6238770;23;20005;-96
2022/02/16 10:58:40;;;;;;;0.30;0.30;;;;;;;;;;6238219;23;20048;-96
2022/02/16 11:01:31;;;;;;;5.10;0.65;;;;;;;;;;6117341;23;20031;-96
2022/02/16 11:04:26;;;;;;;5.63;1.10;;;;;;;;;;6101701;23;20007;-96
2022/02/16 11:07:06;;;;;;;1.25;0.70;;;;;;;;;;6106838;23;20061;-96
2022/02/16 11:10:03;;;;;;;0.60;0.60;;;;;;;;;;6091289;23;20006;-96
2022/02/16 11:12:35;;;;;;;0.73;0.50;;;;;;;;;;6111796;23;20350;-96
2022/02/16 11:15:02;;;;;;;0.57;0.57;;;;;;;;;;6106597;23;20002;-96
2022/02/16 11:17:39;;;;;;;0.30;0.30;;;;;;;;;;6106016;23;20085;-96
2022/02/16 11:20:22;;;;;;;0.75;0.63;;;;;;;;;;6100278;23;20006;-93
2022/02/16 11:22:55;;;;;;;2.05;0.80;;;;;;;;;;6070023;23;20099;-95
2022/02/16 11:25:28;;;;;;;7.45;1.42;;;;;;;;;;6093315;23;20007;-96
2022/02/16 11:27:54;;;;;;;5.43;2.13;;;;;;;;;;6068750;23;20113;-96
2022/02/16 11:30:34;;;;;;;2.38;1.60;;;;;;;;;;6068784;23;20002;-94
2022/02/16 11:33:13;;;;;;;2.22;1.17;;;;;;;;;;6214180;23;20008;-95
2022/02/16 11:35:46;;;;;;;0.65;0.60;;;;;;;;;;6214226;23;20009;-94
2022/02/16 11:38:15;;;;;;;1.33;1.02;;;;;;;;;;6187302;23;20072;-94
2022/02/16 11:40:45;;;;;;;2.95;0.82;;;;;;;;;;6187318;23;20538;-95
2022/02/16 11:43:13;;;;;;;1.48;0.70;;;;;;;;;;6188510;23;20344;-95
2022/02/16 11:45:39;;;;;;;0.82;0.82;;;;;;;;;;6216376;23;20009;-95
2022/02/16 11:48:06;;;;;;;1.40;1.23;;;;;;;;;;6216277;23;20024;-96
2022/02/16 11:50:33;;;;;;;1.20;1.08;;;;;;;;;;6193034;23;20015;-94
2022/02/16 11:53:01;;;;;;;1.30;0.80;;;;;;;;;;6216202;23;20009;-94
2022/02/16 11:55:36;;;;;;;1.05;0.82;;;;;;;;;;6189720;23;20005;-94
2022/02/16 11:58:01;;;;;;;0.63;0.60;;;;;;;;;;6215581;23;20016;-94
2022/02/16 12:00:45;;;;;;;0.98;0.73;;;;;;;;;;6216094;23;20009;-96
2022/02/16 12:03:12;;;;;;;0.95;0.60;;;;;;;;;;6218487;23;20001;-93
2022/02/16 12:05:56;;;;;;;0.85;0.70;;;;;;;;;;6195998;23;20008;-96
2022/02/16 12:08:37;;;;;;;1.15;0.95;;;;;;;;;;6195316;23;20083;-95
2022/02/16 12:11:05;;;;;;;2.90;1.17;;;;;;;;;;6221954;23;20004;-95
2022/02/16 12:13:37;;;;;;;0.70;0.60;;;;;;;;;;6229903;23;20009;-95
2022/02/16 12:16:08;;;;;;;8.68;4.10;;;;;;;;;;6223136;23;20089;-95
2022/02/16 12:18:38;;;;;;;3.45;1.40;;;;;;;;;;6221085;23;20436;-96
2022/02/16 12:21:06;;;;;;;1.27;0.80;;;;;;;;;;6224434;23;20008;-95
2022/02/16 12:23:39;;;;;;;0.60;0.60;;;;;;;;;;6220252;23;20612;-95
2022/02/16 12:26:07;;;;;;;3.47;1.13;;;;;;;;;;6217448;23;20008;-92
2022/02/16 12:28:51;;;;;;;;;;;12.10;95.20;;;;;;6215600;23;20009;-92
2022/02/16 12:31:17;;;;;;;0.73;0.57;;;;;;;;;;6216153;23;20273;-93
2022/02/16 12:33:51;;;;;;;0.68;0.50;;;;;;;;;;6217663;23;20008;-93
2022/02/16 12:36:17;;;;;;;1.48;0.90;;;;;;;;;;6215341;23;20092;-89
2022/02/16 12:38:46;;;;;;;0.80;0.80;;;;;;;;;;6215030;23;20012;-91
2022/02/16 12:41:12;;;;;;;1.02;0.75;;;;;;;;;;6188716;23;20035;-92
2022/02/16 12:43:38;;;;;;;0.57;0.57;;;;;;;;;;6189070;23;20004;-92
2022/02/16 12:46:04;;;;;;;1.88;0.90;;;;;;;;;;6189131;23;20552;-96
2022/02/16 12:48:30;;;;;;;0.47;0.45;;;;;;;;;;6215630;23;20027;-94
2022/02/16 12:51:04;;;;;;;2.35;0.95;;;;;;;;;;6189837;23;20027;-95
2022/02/16 12:53:37;;;;;;;1.02;0.85;;;;;;;;;;6216034;23;20012;-93
2022/02/16 12:56:09;;;;;;;2.20;2.00;;;;;;;;;;6189814;23;20009;-95
2022/02/16 12:58:35;;;;;;;0.93;0.93;;;;;;;;;;6217835;23;20027;-94
2022/02/16 13:01:07;;;;;;;0.95;0.55;;;;;;;;;;6191697;23;20091;-94
2022/02/16 13:03:38;;;;;;;1.42;0.93;;;;;;;;;;6191639;23;20360;-96
2022/02/16 13:06:06;;;;;;;0.43;0.43;;;;;;;;;;6216770;23;20071;-94
2022/02/16 13:08:33;;;;;;;1.10;0.70;;;;;;;;;;6215959;23;20016;-92
2022/02/16 13:10:59;;;;;;;0.85;0.82;;;;;;;;;;6215144;23;20016;-88
2022/02/16 13:13:33;;;;;;;1.50;0.98;;;;;;;;;;6188531;23;20015;-90
2022/02/16 13:16:00;;;;;;;0.68;0.68;;;;;;;;;;6188396;23;20040;-91
2022/02/16 13:18:32;;;;;;;2.10;0.80;;;;;;;;;;6190227;23;20523;-90
2022/02/16 13:21:08;;;;;;;0.40;0.40;;;;;;;;;;6189933;23;20001;-96
2022/02/16 13:23:34;;;;;;;0.65;0.50;;;;;;;;;;6222926;22;19995;-92
2022/02/16 13:26:06;;;;;;;1.02;0.47;;;;;;;;;;6131491;23;20013;-91
2022/02/16 13:33:50;;;;;;;1.70;0.90;;;;;;;;;;6241703;23;20060;-96
2022/02/16 13:36:16;;;;;;;0.55;0.52;;;;;;;;;;6214884;23;20441;-96
2022/02/16 13:38:43;;;;;;;1.67;0.77;;;;;;;;;;6218246;23;20000;-92
2022/02/16 13:41:15;;;;;;;0.98;0.50;;;;;;;;;;6214625;23;20547;-93
2022/02/16 13:43:56;;;;;;;1.70;0.75;;;;;;;;;;6215282;23;20005;-93
2022/02/16 13:46:23;;;;;;;2.92;1.02;;;;;;;;;;6214943;23;20079;-93
2022/02/16 13:49:09;;;;;;;1.25;0.63;;;;;;;;;;6216019;23;20027;-96
2022/02/16 13:51:35;;;;;;;1.25;0.90;;;;;;;;;;6219848;23;20005;-92
2022/02/16 13:54:05;;;;;;;0.55;0.55;;;;;;;;;;6215197;23;20035;-95
2022/02/16 13:56:31;;;;;;;1.95;0.90;;;;;;;;;;6214242;23;20008;-95
2022/02/16 13:59:17;;;;;;;0.43;0.40;;;;;;;;;;6213319;23;20036;-95
2022/02/16 14:01:43;;;;;;;1.70;0.97;;;;;;;;;;6214627;23;20036;-94
2022/02/16 14:04:10;;;;;;;0.77;0.70;;;;;;;;;;6213148;23;20004;-94
2022/02/16 14:06:38;;;;;;;1.02;0.50;;;;;;;;;;6214508;23;20008;-94
2022/02/16 14:09:12;;;;;;;0.68;0.68;;;;;;;;;;6212817;23;20067;-96
2022/02/16 14:11:46;;;;;;;0.80;0.52;;;;;;;;;;6214630;23;20452;-96
2022/02/16 14:14:12;;;;;;;0.30;0.30;;;;;;;;;;6214972;23;20450;-95
2022/02/16 14:16:53;;;;;;;0.93;0.52;;;;;;;;;;6214816;23;20004;-94
2022/02/16 14:19:35;;;;;;;3.30;1.02;;;;;;;;;;6214365;23;20008;-94
2022/02/16 14:22:05;;;;;;;0.73;0.50;;;;;;;;;;6214849;23;20008;-95
2022/02/16 14:24:34;;;;;;;1.25;1.00;;;;;;;;;;6214055;23;20433;-94
2022/02/16 14:27:07;;;;;;;0.60;0.60;;;;;;;;;;6215218;23;20074;-93
2022/02/16 14:29:33;;;;;;;1.92;0.80;;;;;;;;;;6214667;23;20005;-95
2022/02/16 14:32:04;;;;;;;1.35;0.60;;;;;;;;;;6213513;23;20024;-95
2022/02/16 14:34:30;;;;;;;0.98;0.88;;;;;;;;;;6214709;23;20005;-95
2022/02/16 14:36:59;;;;;;;0.80;0.60;;;;;;;;;;6216216;23;20016;-96
2022/02/16 14:39:27;;;;;;;0.50;0.50;;;;;;;;;;6215155;23;19996;-95
2022/02/16 14:41:55;;;;;;;0.98;0.90;;;;;;;;;;6215798;23;20034;-93
2022/02/16 14:44:21;;;;;;;0.63;0.63;;;;;;;;;;6215101;23;20347;-95
2022/02/16 14:46:53;;;;;;;0.73;0.35;;;;;;;;;;6215268;23;20084;-96
2022/02/16 14:49:19;;;;;;;0.93;0.82;;;;;;;;;;6214205;23;20016;-94
2022/02/16 14:51:50;;;;;;;1.63;1.00;;;;;;;;;;6214017;23;20403;-96
2022/02/16 14:54:25;;;;;;;0.93;0.93;;;;;;;;;;6214348;23;20005;-95
2022/02/16 14:56:54;;;;;;;2.17;1.63;;;;;;;;;;6214973;23;20059;-94
2022/02/16 14:59:29;;;;;;;5.03;1.27;;;;;;;;;;6215028;23;20001;-96
2022/02/16 15:02:01;;;;;;;1.33;0.80;;;;;;;;;;6215660;23;20024;-95
2022/02/16 15:04:43;;;;;;;1.05;0.82;;;;;;;;;;6214848;23;20009;-96
2022/02/16 15:07:17;;;;;;;0.98;0.90;;;;;;;;;;6213434;23;20087;-95
2022/02/16 15:09:44;;;;;;;1.63;0.98;;;;;;;;;;6214756;23;20063;-94
2022/02/16 15:12:12;;;;;;;0.90;0.80;;;;;;;;;;6215353;23;20064;-95
2022/02/16 15:14:51;;;;;;;;;;;;;;;;;;;;;
2022/02/16 15:17:31;;;;;;;1.17;1.08;;;;;;;;;;6187153;23;20068;-95
2022/02/16 15:20:09;;;;;;;;;;;;;;;;;;;;;
2022/02/16 15:22:35;;;;;;;3.45;1.50;;;;;;;;;;6187247;23;20087;-92
2022/02/16 15:25:02;;;;;;;2.75;0.95;;;;;;;;;;6215910;23;20005;-95
2022/02/16 15:27:29;;;;;;;3.05;2.67;;;;;;;;;;6216557;23;20099;-96
2022/02/16 15:29:55;;;;;;;1.20;1.10;;;;;;;;;;6216307;23;20005;-96
2022/02/16 15:32:21;;;;;;;1.15;0.60;;;;;;;;;;6214269;23;20044;-96
2022/02/16 15:34:47;;;;;;;1.83;1.05;;;;;;;;;;6214724;23;20016;-96
2022/02/16 15:37:13;;;;;;;3.00;1.00;;;;;;;;;;6214474;23;20032;-96
2022/02/16 15:39:40;;;;;;;2.85;0.95;;;;;;;;;;6188932;23;20004;-95
2022/02/16 15:42:07;;;;;;;1.90;1.40;;;;;;;;;;6217716;23;20000;-94
2022/02/16 15:44:33;;;;;;;1.08;0.90;;;;;;;;;;6214647;23;20017;-95
2022/02/16 15:47:04;;;;;;;0.80;0.70;;;;;;;;;;6214165;23;20092;-96
2022/02/16 15:49:30;;;;;;;1.67;1.30;;;;;;;;;;6216052;23;20043;-96
2022/02/16 15:51:56;;;;;;;5.78;1.08;;;;;;;;;;6215871;23;20000;-96
2022/02/16 15:54:22;;;;;;;2.20;1.08;;;;;;;;;;6216279;23;20005;-96
2022/02/16 15:56:48;;;;;;;3.83;1.02;;;;;;;;;;6216937;23;20001;-95
2022/02/16 15:59:14;;;;;;;2.05;1.38;;;;;;;;;;6212998;23;20008;-96
2022/02/16 16:01:41;;;;;;;2.47;1.20;;;;;;;;;;6214593;23;20004;-96
2022/02/16 16:04:08;;;;;;;1.38;1.27;;;;;;;;;;6190799;23;20005;-96
2022/02/16 16:06:44;;;;;;;1.02;1.02;;;;;;;;;;6221978;23;20003;-96
2022/02/16 16:09:13;;;;;;;0.93;0.88;;;;;;;;;;6221289;23;20012;-96
2022/02/16 16:11:40;;;;;;;4.55;1.50;;;;;;;;;;6220706;23;20000;-96
2022/02/16 16:14:07;;;;;;;2.58;1.30;;;;;;;;;;6242989;23;20021;-96
2022/02/16 16:16:36;;;;;;;4.10;1.35;;;;;;;;;;6196548;23;20009;-96
2022/02/16 16:19:07;;;;;;;8.60;2.10;;;;;;;;;;6219689;23;20004;-96
2022/02/16 16:21:42;;;;;;;2.22;1.17;;;;;;;;;;6221066;23;20428;-96
2022/02/16 16:24:13;;;;;;;5.20;1.40;;;;;;;;;;6222023;23;20064;-96
2022/02/16 16:26:43;;;;;;;2.10;1.90;;;;;;;;;;6196353;23;20060;-96
2022/02/16 16:29:17;;;;;;;0.73;0.73;;;;;;;;;;6175371;23;20012;-96
2022/02/16 16:31:47;;;;;;;2.58;0.85;;;;;;;;;;6231017;23;20036;-96
2022/02/16 16:34:28;;;;;;;1.05;0.75;;;;;;;;;;6232497;23;20012;-96
2022/02/16 16:36:59;;;;;;;2.70;0.98;;;;;;;;;;6157875;23;20023;-95
2022/02/16 16:39:31;;;;;;;1.35;1.00;;;;;;;;;;6215567;23;20012;-90
2022/02/16 16:55:22;;;;;;;5.53;1.75;;;;;;;;;;6191987;22;20031;-95
2022/02/16 17:00:28;;;;;;;2.85;1.40;;;;;;;;;;6234609;23;20259;-95
2022/02/16 17:03:00;;;;;;;1.77;1.08;;;;;;;;;;6203519;23;20009;-96
2022/02/16 17:06:01;;;;;;;1.52;1.17;;;;;;;;;;6155369;23;20071;-95
2022/02/16 17:11:39;;;;;;;1.77;0.73;;;;;;;;;;6208006;23;20040;-95
2022/02/16 17:14:12;;;;;;;2.97;1.63;;;;;;;;;;6177217;23;20009;-96
2022/02/16 17:17:04;;;;;;;1.48;1.20;;;;;;;;;;6164985;23;20005;-95
2022/02/16 17:19:37;;;;;;;1.92;0.90;;;;;;;;;;6166198;23;20005;-96
2022/02/16 17:22:07;;;;;;;3.30;1.60;;;;;;;;;;6194408;23;20005;-93
2022/02/16 19:00:52;;;;;;;2.80;1.80;;;;;;;;;;6183511;22;20042;-96
2022/02/16 19:03:22;;;;;;;2.70;1.45;;;;;;;;;;6190160;23;20001;-95
2022/02/16 19:05:48;;;;;;;3.80;2.83;;;;;;;;;;6189037;23;20344;-95
2022/02/16 19:08:15;;;;;;;6.43;3.65;;;;;;;;;;6189039;23;20506;-96
2022/02/16 19:10:43;;;;;;;3.08;2.50;;;;;;;;;;6184029;23;20005;-95
2022/02/16 19:13:10;;;;;;;4.43;2.78;;;;;;;;;;6185100;23;20017;-92
2022/02/16 19:15:36;;;;;;;3.35;2.50;;;;;;;;;;6184317;23;20005;-96
2022/02/16 19:18:03;;;;;;;8.15;4.15;;;;;;;;;;6185800;23;20384;-95
2022/02/16 19:20:29;;;;;;;4.97;3.42;;;;;;;;;;6185111;23;20009;-93
2022/02/16 19:22:55;;;;;;;2.80;1.40;;;;;;;;;;6193789;23;20004;-95
2022/02/16 19:25:21;;;;;;;2.75;1.52;;;;;;;;;;6190109;23;20444;-96
2022/02/16 19:27:47;;;;;;;3.80;1.65;;;;;;;;;;6189666;23;20099;-95
2022/02/16 19:30:15;;;;;;;15.52;1.77;;;;;;;;;;6218612;23;20019;-96
2022/02/16 19:32:44;;;;;;;4.47;1.60;;;;;;;;;;6220950;23;20013;-95
2022/02/16 19:35:11;;;;;;;3.60;1.88;;;;;;;;;;6218058;23;20071;-96
2022/02/16 19:37:38;;;;;;;2.72;1.70;;;;;;;;;;6187927;23;20005;-95
2022/02/16 19:40:04;;;;;;;2.53;1.33;;;;;;;;;;6214615;23;20012;-95
2022/02/16 19:42:35;;;;;;;4.22;1.58;;;;;;;;;;6215215;23;20008;-95
2022/02/16 19:45:03;;;;;;;3.83;1.83;;;;;;;;;;6215753;23;20027;-95
2022/02/16 19:47:29;;;;;;;1.77;1.25;;;;;;;;;;6214952;23;20000;-94
2022/02/16 19:49:59;;;;;;;3.25;1.42;;;;;;;;;;6214269;23;20377;-93
2022/02/16 19:52:25;;;;;;;4.25;1.60;;;;;;;;;;6216570;23;20004;-91
2022/02/16 19:54:52;;;;;;;2.17;1.67;;;;;;;;;;6187842;23;20261;-91
2022/02/16 19:57:22;;;;;;;2.65;1.73;;;;;;;;;;6213683;23;20221;-92
2022/02/16 19:59:49;;;;;;;3.05;1.58;;;;;;;;;;6213521;23;20016;-91
2022/02/16 20:02:15;;;;;;;2.50;1.38;;;;;;;;;;6214090;23;20079;-92
2022/02/16 20:04:41;;;;;;;2.35;1.60;;;;;;;;;;6214270;23;20008;-92
2022/02/16 20:07:07;;;;;;;2.10;1.13;;;;;;;;;;6188036;23;20023;-90
2022/02/16 20:09:33;;;;;;;2.28;1.00;;;;;;;;;;6215003;23;20021;-92
2022/02/16 20:12:00;;;;;;;4.82;1.70;;;;;;;;;;6189259;23;20012;-92
2022/02/16 20:14:26;;;;;;;1.73;1.02;;;;;;;;;;6190827;23;20507;-92
2022/02/16 20:16:52;;;;;;;2.17;1.27;;;;;;;;;;6190359;23;20004;-93
2022/02/16 20:19:18;;;;;;;2.83;1.45;;;;;;;;;;6190163;23;20004;-94
2022/02/16 20:21:45;;;;;;;1.73;1.20;;;;;;;;;;6217298;23;20001;-95
2022/02/16 20:24:11;;;;;;;1.40;0.90;;;;;;;;;;6218106;23;20011;-94
2022/02/16 20:26:37;;;;;;;4.45;1.38;;;;;;;;;;6216544;23;20009;-94
2022/02/16 20:29:03;;;;;;;2.75;1.40;;;;;;;;;;6190162;23;20012;-95
2022/02/16 20:31:30;;;;;;;2.65;2.00;;;;;;;;;;6190607;23;20084;-95
2022/02/16 20:33:57;;;;;;;4.43;2.65;;;;;;;;;;6190562;23;20066;-94
2022/02/16 20:36:23;;;;;;;3.80;1.67;;;;;;;;;;6216713;23;20040;-93
2022/02/16 20:38:49;;;;;;;1.40;1.10;;;;;;;;;;6216139;23;20147;-94
2022/02/16 20:41:16;;;;;;;3.85;1.33;;;;;;;;;;6216665;23;20008;-94
2022/02/16 20:43:42;;;;;;;2.97;1.73;;;;;;;;;;6216461;23;20001;-96
2022/02/16 20:46:08;;;;;;;1.10;0.98;;;;;;;;;;6216818;23;20036;-94
2022/02/16 20:48:34;;;;;;;0.52;0.52;;;;;;;;;;6189618;23;20008;-93
2022/02/16 20:51:00;;;;;;;1.15;1.05;;;;;;;;;;6216566;23;20050;-96
2022/02/16 20:53:26;;;;;;;1.58;0.93;;;;;;;;;;6190379;23;20011;-94
2022/02/16 20:55:52;;;;;;;1.05;0.85;;;;;;;;;;6216522;23;20157;-95
2022/02/16 20:58:18;;;;;;;0.93;0.90;;;;;;;;;;6216222;23;20001;-95
2022/02/16 21:00:44;;;;;;;0.50;0.43;;;;;;;;;;6189599;23;20523;-94
2022/02/16 21:03:14;;;;;;;1.13;0.55;;;;;;;;;;6189992;23;20004;-94
2022/02/16 21:05:44;;;;;;;7.13;1.40;;;;;;;;;;6217070;23;20004;-94
2022/02/16 21:08:14;;;;;;;1.13;0.77;;;;;;;;;;6216633;23;20009;-95
2022/02/16 21:10:40;;;;;;;1.33;0.77;;;;;;;;;;6216610;23;20028;-95
2022/02/16 21:13:06;;;;;;;2.70;0.93;;;;;;;;;;6190141;23;20444;-93
2022/02/16 21:15:37;;;;;;;1.52;1.10;;;;;;;;;;6189703;23;20004;-94
2022/02/16 21:18:03;;;;;;;7.28;2.92;;;;;;;;;;6216527;23;20055;-94
2022/02/16 21:20:29;;;;;;;3.95;1.63;;;;;;;;;;6216364;23;19997;-94
2022/02/16 21:22:56;;;;;;;1.33;1.23;;;;;;;;;;6189752;23;20016;-94
2022/02/16 21:25:22;;;;;;;1.75;0.60;;;;;;;;;;6216007;23;20220;-95
2022/02/16 21:27:48;;;;;;;0.98;0.80;;;;;;;;;;6189926;23;20478;-96
2022/02/16 21:30:14;;;;;;;0.57;0.57;;;;;;;;;;6216335;23;20000;-95
2022/02/16 21:32:40;;;;;;;5.55;1.98;;;;;;;;;;6189617;23;20079;-95
2022/02/16 21:35:06;;;;;;;0.82;0.80;;;;;;;;;;6216688;23;20031;-93
2022/02/16 21:37:34;;;;;;;1.20;0.77;;;;;;;;;;6216131;23;20507;-94
2022/02/16 21:40:07;;;;;;;3.38;1.33;;;;;;;;;;6216248;23;20000;-94
2022/02/16 21:42:38;;;;;;;2.45;1.48;;;;;;;;;;6216631;23;20004;-96
2022/02/16 21:45:05;;;;;;;3.33;1.55;;;;;;;;;;6216718;23;20199;-94
2022/02/16 21:47:37;;;;;;;3.08;1.90;;;;;;;;;;6215774;23;20008;-95
2022/02/16 21:50:13;;;;;;;5.40;2.95;;;;;;;;;;6216005;23;20462;-95
2022/02/16 21:52:39;;;;;;;5.30;2.05;;;;;;;;;;6189833;23;20067;-94
2022/02/16 21:55:06;;;;;;;4.05;1.80;;;;;;;;;;6216618;23;20080;-96
2022/02/16 21:57:34;;;;;;;5.88;2.70;;;;;;;;;;6216386;23;20332;-94
2022/02/16 22:00:07;;;;;;;4.03;1.63;;;;;;;;;;6215573;23;20012;-95
2022/02/16 22:02:34;;;;;;;3.95;1.83;;;;;;;;;;6189302;23;20474;-95
2022/02/16 22:05:00;;;;;;;5.72;2.10;;;;;;;;;;6216553;23;20066;-94
2022/02/16 22:07:26;;;;;;;7.70;4.18;;;;;;;;;;6215930;23;20017;-93
2022/02/16 22:09:52;;;;;;;6.65;2.78;;;;;;;;;;6216237;23;20083;-95
2022/02/16 22:12:33;;;;;;;9.63;2.67;;;;;;;;;;6216109;23;20004;-94
2022/02/16 22:15:00;;;;;;;8.75;3.25;;;;;;;;;;6216360;23;20004;-93
2022/02/16 22:17:28;;;;;;;11.37;3.20;;;;;;;;;;6189065;23;20027;-95
2022/02/16 22:19:59;;;;;;;11.25;3.42;;;;;;;;;;6215838;23;20235;-94
2022/02/16 22:22:25;;;;;;;9.18;3.78;;;;;;;;;;6215865;23;20004;-94
2022/02/16 22:24:52;;;;;;;9.52;2.28;;;;;;;;;;6189457;23;20522;-94
2022/02/16 22:27:18;;;;;;;1.55;1.17;;;;;;;;;;6215275;23;20013;-95
2022/02/16 22:29:44;;;;;;;4.85;1.73;;;;;;;;;;6216109;23;20004;-94
2022/02/16 22:32:10;;;;;;;3.75;1.52;;;;;;;;;;6215815;23;20067;-93
2022/02/16 22:34:36;;;;;;;3.40;1.65;;;;;;;;;;6189397;23;20040;-95
2022/02/16 22:37:02;;;;;;;1.55;1.10;;;;;;;;;;6215731;23;20428;-94
2022/02/16 22:39:28;;;;;;;1.17;0.80;;;;;;;;;;6188810;23;20346;-93
2022/02/16 22:41:56;;;;;;;1.58;1.35;;;;;;;;;;6188999;23;20009;-94
2022/02/16 22:44:23;;;;;;;0.95;0.85;;;;;;;;;;6215704;23;20016;-94
2022/02/16 22:46:50;;;;;;;1.30;0.82;;;;;;;;;;6188504;23;20430;-93
2022/02/16 22:49:16;;;;;;;0.43;0.43;;;;;;;;;;6215623;23;20005;-95
2022/02/16 22:51:43;;;;;;;3.67;1.25;;;;;;;;;;6215725;23;20082;-94
2022/02/16 22:54:11;;;;;;;6.53;1.90;;;;;;;;;;6215549;23;20000;-95
2022/02/16 22:56:37;;;;;;;4.65;1.98;;;;;;;;;;6215489;23;20000;-93
2022/02/16 22:59:03;;;;;;;7.57;2.22;;;;;;;;;;6215620;23;20090;-95
2022/02/16 23:01:32;;;;;;;6.53;1.92;;;;;;;;;;6188471;23;20024;-95
2022/02/16 23:03:58;;;;;;;3.63;2.00;;;;;;;;;;6215750;23;20011;-94
2022/02/16 23:11:53;;;;;;;4.25;1.60;;;;;;;;;;6215203;23;20347;-94
2022/02/16 23:14:20;;;;;;;4.10;2.53;;;;;;;;;;6215269;23;20012;-94
2022/02/16 23:16:46;;;;;;;5.47;2.08;;;;;;;;;;6188452;23;20387;-94
2022/02/16 23:19:12;;;;;;;4.40;2.50;;;;;;;;;;6215661;23;20066;-94
2022/02/16 23:21:38;;;;;;;7.07;2.40;;;;;;;;;;6215264;23;19997;-96
2022/02/16 23:24:04;;;;;;;7.80;2.90;;;;;;;;;;6188591;23;21223;-95
2022/02/16 23:26:30;;;;;;;1.73;1.50;;;;;;;;;;6215113;23;20028;-94
2022/02/16 23:28:56;;;;;;;0.88;0.77;;;;;;;;;;6214391;23;20058;-94
2022/02/16 23:31:23;;;;;;;2.88;0.90;;;;;;;;;;6215039;23;20001;-94
2022/02/16 23:33:49;;;;;;;2.22;1.38;;;;;;;;;;6214927;23;20380;-95
2022/02/16 23:36:15;;;;;;;2.50;1.05;;;;;;;;;;6188313;23;20111;-95
2022/02/16 23:38:41;;;;;;;1.73;0.93;;;;;;;;;;6188356;23;20031;-94
2022/02/16 23:41:08;;;;;;;6.53;2.00;;;;;;;;;;6190466;23;20043;-96
2022/02/16 23:43:36;;;;;;;4.53;1.53;;;;;;;;;;6216984;23;20512;-93
2022/02/16 23:46:02;;;;;;;1.95;1.45;;;;;;;;;;6190361;23;20008;-94
2022/02/16 23:48:28;;;;;;;3.40;1.55;;;;;;;;;;6216339;23;20071;-94
2022/02/16 23:50:55;;;;;;;0.95;0.70;;;;;;;;;;6190585;23;20009;-94
2022/02/16 23:53:21;;;;;;;2.07;0.90;;;;;;;;;;6216939;23;20027;-95
2022/02/16 23:55:48;;;;;;;2.70;2.00;;;;;;;;;;6217356;23;20856;-93
2022/02/16 23:58:14;;;;;;;4.97;2.08;;;;;;;;;;6217399;23;20013;-94
